CheckWX is a tool to help pilots better visualize weather data.  It is not intended as a substitute for an official pre-flight weather briefing.

21:02:11 UTC

EGFF METAR
Cardiff International Airport
Cardiff, United Kingdom
Current

12 mins ago

EGFF 232050Z AUTO 29010KT 9999 NCD 13/09 Q1017
Observed
May-23 @ 20:50 UTC
Wind
  • 290° at 10 KTS
Visibility
10,000+ meters
Flight Rules
VFR
Cloud Levels
  • Clear skies
Temperature
13°C / 55°F
Dewpoint
C / 48°F
Humidity
77%
Altimeter
30.03" Hg
Pressure
1016.92 hPa
Previous

42 mins ago

EGFF 232020Z AUTO 29012KT 9999 NCD 13/09 Q1017
Observed
May-23 @ 20:20 UTC
Wind
  • 290° at 12 KTS
Visibility
10,000+ meters
Flight Rules
VFR
Cloud Levels
  • Clear skies
Temperature
13°C / 55°F
Dewpoint
C / 48°F
Humidity
77%
Altimeter
30.03" Hg
Pressure
1016.92 hPa
Previous

2 hours ago

EGFF 231920Z AUTO 28010KT 9999 NCD 13/10 Q1016
Observed
May-23 @ 19:20 UTC
Wind
  • 280° at 10 KTS
Visibility
10,000+ meters
Flight Rules
VFR
Cloud Levels
  • Clear skies
Temperature
13°C / 55°F
Dewpoint
10°C / 50°F
Humidity
82%
Altimeter
30" Hg
Pressure
1015.92 hPa